Nantucket, MA

5:09 PM EST on February 28, 2015 (GMT -0500)
Surfside Wastewater Facility | Change Station
CLOSE
Current Station
Personal Weather Station
Location: Nantucket, MA
Elevation: 16 ft
Nearby Weather Stations
Active Advisory: Winter Weather Advisory

Elev 16 ft 41.25 °N, 70.11 °W | Updated 12 seconds ago

Clear
Clear
24.3 °F
Feels Like 18 °F
N
5.0
Wind Variable Wind from SSW
Gusts 9.0 mph

Today
High -- | Low -- °F
--% Chance of Precip.
Yesterday
High -- | Low -- °F
Precip. -- in
6:16 AM 5:29 PM
Waxing Gibbous, 80% visible
Pressure 30.71 in
Visibility 10.0 miles
Clouds Clear
Windchill 18 °F
Dew Point 12 °F
Humidity 59%
Rainfall 0.00 in
Snow Depth Not available.
UV 0 out of 12
Pollen .40 out of 12
Air Quality Not available.
Flu Activity Not available.
METAR KACK 282153Z 26007KT 10SM CLR M04/M14 A3071 RMK AO2 SLP398 T10441139

More Conditions Fewer Conditions

Pressure 30.71 in
Visibility 10.0 miles
Clouds Clear
Windchill 18 °F
Dew Point 12 °F
Humidity 59%
Rainfall 0.00 in
Snow Depth Not available.
UV 0 out of 12
Pollen .40 out of 12
Air Quality Not available.
Flu Activity Not available.
METAR KACK 282153Z 26007KT 10SM CLR M04/M14 A3071 RMK AO2 SLP398 T10441139

More Conditions Fewer Conditions

10-Day Weather Forecast

Almanac

Astronomy

Feb. 28, 2015 Rise Set
Actual Time
Civil Twilight
Nautical Twilight
Astronomical Twilight
Moon
Length of Visible Light
Length of Day
Tomorrow will be .
, % of the Moon is Illuminated

Today's Extremes

State Highs State Lows

Community

WunderPhotos

Upload Photos

1,801,177 photos uploaded!

WunderBlogs® & News

Nearby

Air Quality

  Air Quality AQ Index Pollutant
Not available.

Snow Depth

Station Depth Elevation

Earthquake Activity

City Distance Mag. Time & Date
Minimum magnitude displayed is 2.5.

Coastal Water Temperatures

Place Temperature

Nearby Weather Stations

Winter Weather Advisory
Statement as of 3:24 PM EST on February 28, 2015

... Winter Weather Advisory remains in effect from noon Sunday to
7 am EST Monday...

* locations... include Block Island... Marthas Vineyard... and
Nantucket.

* Hazard types... snow and freezing rain.

* Snow accumulations... 3 to 5 inches.

* Timing... light snow develops during the mid to late afternoon
hours on Sunday... picking up in intensity Sunday evening into
Sunday night. The snow concludes by daybreak Monday.

* Impacts... untreated roads will become snow covered and
slippery by Sunday evening along with poor visibility at times.

* Visibilities... one quarter mile or less at times.

Precautionary/preparedness actions...

A Winter Weather Advisory is issued when snow and/or ice is
forecast to develop in the affected areas... but accumulations are
expected to be light. Any snow or ice would result in slippery
conditions on untreated roadways and sidewalks. When temperatures
are below freezing... motorists need to be especially careful on
bridges and overpasses where slippery spots can easily develop.